Time;durP1;ratioP1;P1;durP2;ratioP2;P2;SDS_P1;SDS_P2;PMS_P1;PMS_P2;Temp;Humidity;BMP_temperature;BMP_pressure;BME280_temperature;BME280_humidity;BME280_pressure;Samples;Min_cycle;Max_cycle;Signal;HPM_P1;HPM_P2
2022/08/12 00:43:34;;;;;;;9.52;6.40;;;19.60;99.90;;;;;;4999494;28;20054;-52
2022/08/12 00:48:46;;;;;;;9.88;6.45;;;19.60;99.90;;;;;;5000207;28;20066;-53
2022/08/12 00:51:12;;;;;;;12.23;7.00;;;19.60;99.90;;;;;;5000318;28;20410;-52
2022/08/12 00:53:38;;;;;;;10.00;6.65;;;19.60;99.90;;;;;;4999392;28;20062;-52
2022/08/12 00:56:05;;;;;;;11.20;7.32;;;19.60;99.90;;;;;;4999648;28;20045;-54
2022/08/12 00:58:32;;;;;;;8.23;5.75;;;19.50;99.90;;;;;;5001015;28;20061;-54
2022/08/12 01:01:05;;;;;;;12.10;7.03;;;19.50;99.90;;;;;;4998206;28;20134;-52
2022/08/12 01:11:53;;;;;;;11.98;6.72;;;19.50;99.90;;;;;;5000952;28;20136;-52
2022/08/12 01:14:22;;;;;;;12.63;7.18;;;19.50;99.90;;;;;;4999606;28;20069;-53
2022/08/12 01:16:50;;;;;;;9.52;6.40;;;19.50;99.90;;;;;;4995584;28;20058;-54
2022/08/12 01:19:19;;;;;;;9.63;6.05;;;19.50;99.90;;;;;;4979801;28;20047;-54
2022/08/12 01:22:22;;;;;;;12.05;6.85;;;19.50;99.90;;;;;;4978459;28;20090;-53
2022/08/12 01:24:59;;;;;;;;;;;19.50;99.90;;;;;;4980361;28;20134;-53
2022/08/12 01:27:27;;;;;;;10.95;6.45;;;19.40;99.90;;;;;;4980701;28;19926;-49
2022/08/12 01:29:55;;;;;;;13.73;7.97;;;19.40;99.90;;;;;;4980406;28;20073;-52
2022/08/12 01:32:22;;;;;;;12.85;7.30;;;19.40;99.90;;;;;;4981996;28;20047;-53
2022/08/12 01:35:00;;;;;;;14.25;7.22;;;19.40;99.90;;;;;;4983329;28;20134;-52
2022/08/12 01:37:29;;;;;;;11.73;7.30;;;19.40;99.90;;;;;;4986389;28;20074;-52
2022/08/12 01:39:58;;;;;;;9.45;7.05;;;19.40;99.90;;;;;;5001494;28;20054;-54
2022/08/12 01:42:25;;;;;;;12.63;7.55;;;19.40;99.90;;;;;;5003607;28;20077;-52
2022/08/12 01:44:54;;;;;;;13.68;7.30;;;19.30;99.90;;;;;;5003812;28;20061;-54
2022/08/12 01:47:48;;;;;;;10.75;7.90;;;19.30;99.90;;;;;;5002517;28;20078;-52
2022/08/12 01:50:25;;;;;;;13.00;8.48;;;19.30;99.90;;;;;;5002918;28;20057;-54
2022/08/12 01:52:59;;;;;;;15.55;7.80;;;19.30;99.90;;;;;;5001515;28;20042;-51
2022/08/12 01:55:32;;;;;;;14.32;8.00;;;19.20;99.90;;;;;;5003153;28;20109;-53
2022/08/12 01:58:19;;;;;;;13.75;8.43;;;19.20;99.90;;;;;;5003980;28;20042;-52
2022/08/12 02:01:10;;;;;;;10.60;7.63;;;19.20;99.90;;;;;;5002220;28;20042;-53
2022/08/12 02:12:46;;;;;;;11.93;8.43;;;18.90;99.90;;;;;;5003104;28;20051;-50
2022/08/12 02:15:21;;;;;;;9.82;6.45;;;18.90;99.90;;;;;;5002052;28;20046;-53
2022/08/12 02:17:53;;;;;;;10.85;7.13;;;18.80;99.90;;;;;;5001813;28;20070;-53
2022/08/12 02:20:31;;;;;;;11.18;7.40;;;18.90;99.90;;;;;;5002316;28;20061;-53
2022/08/12 02:22:59;;;;;;;11.50;7.85;;;18.80;99.90;;;;;;5002468;28;20045;-52
2022/08/12 02:25:32;;;;;;;10.95;6.88;;;18.60;99.90;;;;;;5002320;28;20065;-53
2022/08/12 02:27:59;;;;;;;10.57;6.68;;;18.70;99.90;;;;;;5003074;28;20049;-51
2022/08/12 02:30:31;;;;;;;9.82;6.80;;;18.70;99.90;;;;;;5001664;28;20046;-52
2022/08/12 02:33:00;;;;;;;11.48;6.93;;;18.70;99.90;;;;;;5001980;28;20508;-53
2022/08/12 02:35:28;;;;;;;9.77;6.68;;;18.60;99.90;;;;;;5001793;28;20077;-52
2022/08/12 02:37:58;;;;;;;13.50;7.40;;;18.60;99.90;;;;;;5002468;28;20038;-54
2022/08/12 02:40:26;;;;;;;10.02;6.25;;;18.70;99.90;;;;;;5002591;28;20056;-55
2022/08/12 02:42:57;;;;;;;11.13;7.22;;;18.60;99.90;;;;;;5001827;28;20102;-53
2022/08/12 02:45:37;;;;;;;11.88;6.85;;;18.60;99.90;;;;;;5001595;28;20073;-53
2022/08/12 02:48:06;;;;;;;10.95;6.90;;;18.60;99.90;;;;;;5001278;28;20038;-52
2022/08/12 02:50:36;;;;;;;13.52;7.40;;;18.60;99.90;;;;;;5002720;28;20066;-52
2022/08/12 02:53:03;;;;;;;10.98;7.05;;;18.60;99.90;;;;;;5002009;28;20058;-53
2022/08/12 02:55:34;;;;;;;10.57;7.35;;;18.60;99.90;;;;;;5001815;28;20414;-53
2022/08/12 02:58:08;;;;;;;10.93;7.18;;;18.60;99.90;;;;;;5001343;28;20049;-54
2022/08/12 03:00:35;;;;;;;12.35;8.15;;;18.60;99.90;;;;;;5000880;28;20549;-51
2022/08/12 03:03:06;;;;;;;10.43;7.65;;;18.60;99.90;;;;;;5002618;28;20522;-54
2022/08/12 03:05:49;;;;;;;10.23;7.28;;;18.60;99.90;;;;;;5001478;28;20050;-55
2022/08/12 03:08:22;;;;;;;10.90;7.57;;;18.50;99.90;;;;;;5001348;28;20058;-54
2022/08/12 03:10:49;;;;;;;12.88;7.65;;;18.60;99.90;;;;;;5002388;28;20053;-52
2022/08/12 03:13:19;;;;;;;9.65;6.45;;;18.60;99.90;;;;;;5000706;28;20042;-53
2022/08/12 03:15:44;;;;;;;11.10;8.35;;;18.60;99.90;;;;;;5002575;28;20042;-53
2022/08/12 03:18:29;;;;;;;11.05;8.05;;;18.60;99.90;;;;;;5000802;28;20498;-53
2022/08/12 03:20:57;;;;;;;12.27;7.70;;;18.60;99.90;;;;;;5001729;28;20081;-53
2022/08/12 03:23:23;;;;;;;11.45;7.82;;;18.60;99.90;;;;;;5000673;28;20187;-53
2022/08/12 03:25:51;;;;;;;12.48;7.55;;;18.60;99.90;;;;;;5000648;28;20659;-51
2022/08/12 03:31:06;;;;;;;12.63;8.23;;;18.60;99.90;;;;;;5000752;28;20061;-51
2022/08/12 03:33:38;;;;;;;11.60;7.78;;;18.60;99.90;;;;;;5001906;28;20051;-53
2022/08/12 03:36:05;;;;;;;;;;;18.60;99.90;;;;;;5001775;28;20461;-53
2022/08/12 03:38:34;;;;;;;12.52;8.35;;;18.60;99.90;;;;;;5000467;28;19928;-54
2022/08/12 03:41:34;;;;;;;11.65;7.53;;;18.60;99.90;;;;;;5001924;28;20519;-53
2022/08/12 04:01:06;;;;;;;13.98;8.57;;;18.40;99.90;;;;;;5000175;28;20110;-53
2022/08/12 04:03:51;;;;;;;12.73;8.50;;;18.40;99.90;;;;;;5001481;28;20042;-53
2022/08/12 04:06:25;;;;;;;13.50;8.40;;;18.40;99.90;;;;;;4999811;28;20034;-53
2022/08/12 04:08:56;;;;;;;12.80;8.32;;;18.30;99.90;;;;;;4999564;28;20133;-54
2022/08/12 04:14:16;;;;;;;15.00;8.07;;;18.30;99.90;;;;;;5000173;28;20049;-53
2022/08/12 04:16:42;;;;;;;12.45;8.25;;;18.30;99.90;;;;;;4996260;28;20046;-53
2022/08/12 04:19:08;;;;;;;12.63;8.30;;;18.30;99.90;;;;;;4981700;28;20050;-52
2022/08/12 04:21:36;;;;;;;11.43;8.60;;;18.30;99.90;;;;;;4979434;28;20102;-52
2022/08/12 04:24:03;;;;;;;12.05;8.30;;;18.30;99.90;;;;;;4981970;28;20042;-50
2022/08/12 04:26:29;;;;;;;11.70;8.40;;;18.20;99.90;;;;;;4980358;28;20050;-51
2022/08/12 04:28:57;;;;;;;11.40;9.27;;;18.20;99.90;;;;;;4981873;28;20470;-54
2022/08/12 04:31:34;;;;;;;12.70;8.60;;;18.20;99.90;;;;;;4980741;28;20054;-52
2022/08/12 04:34:01;;;;;;;14.15;8.18;;;18.20;99.90;;;;;;4980692;28;20062;-53
2022/08/12 04:36:28;;;;;;;11.93;8.18;;;18.20;99.90;;;;;;4981507;28;20039;-52
2022/08/12 04:38:55;;;;;;;11.35;8.07;;;18.20;99.90;;;;;;4993903;28;20045;-53
2022/08/12 04:41:22;;;;;;;12.48;8.30;;;18.20;99.90;;;;;;5001283;28;20043;-55
2022/08/12 04:43:48;;;;;;;13.10;8.23;;;18.20;99.90;;;;;;4999505;28;20054;-53
2022/08/12 04:46:14;;;;;;;12.77;7.70;;;18.20;99.90;;;;;;5000835;28;20055;-54
2022/08/12 04:48:40;;;;;;;12.40;8.30;;;18.20;99.90;;;;;;5000386;28;20046;-49
2022/08/12 04:51:07;;;;;;;13.50;8.55;;;18.30;99.90;;;;;;4999979;28;20050;-53
2022/08/12 04:53:34;;;;;;;13.27;7.70;;;18.30;99.90;;;;;;5001087;28;20449;-53
2022/08/12 04:56:00;;;;;;;10.10;7.47;;;18.40;99.90;;;;;;4999367;28;20041;-53
2022/08/12 04:58:27;;;;;;;11.88;7.18;;;18.30;99.90;;;;;;5001204;28;20117;-53
2022/08/12 05:00:53;;;;;;;10.63;6.80;;;18.40;99.90;;;;;;4999449;28;20045;-54
2022/08/12 05:03:19;;;;;;;11.68;7.05;;;18.40;99.90;;;;;;5000767;28;20050;-51
2022/08/12 05:05:45;;;;;;;9.23;6.97;;;18.50;99.90;;;;;;4999562;28;20102;-51
2022/08/12 05:08:16;;;;;;;13.80;7.55;;;18.50;99.90;;;;;;5001635;28;20050;-49
2022/08/12 05:10:46;;;;;;;11.53;8.10;;;18.50;99.90;;;;;;5004499;28;20058;-52
2022/08/12 05:13:17;;;;;;;12.50;7.90;;;18.60;99.90;;;;;;5002975;28;20470;-56
2022/08/12 05:15:44;;;;;;;12.02;7.15;;;18.60;99.90;;;;;;5004783;28;20062;-52
2022/08/12 05:18:11;;;;;;;10.68;7.22;;;18.60;99.90;;;;;;5003032;28;20044;-53
2022/08/12 05:20:37;;;;;;;8.95;6.30;;;18.70;99.90;;;;;;5004310;28;20042;-52
2022/08/12 05:23:11;;;;;;;12.07;6.78;;;18.80;99.90;;;;;;5002638;28;20133;-53
2022/08/12 05:25:37;;;;;;;12.25;7.03;;;18.80;99.90;;;;;;5003198;28;20046;-53
2022/08/12 05:28:07;;;;;;;10.88;6.57;;;18.80;99.90;;;;;;5003153;28;20062;-51
2022/08/12 05:30:33;;;;;;;10.23;6.35;;;18.90;99.90;;;;;;5002666;28;20057;-53
2022/08/12 05:33:04;;;;;;;10.93;7.55;;;18.90;99.90;;;;;;5004230;28;20043;-51
2022/08/12 05:35:31;;;;;;;12.38;7.18;;;19.00;99.90;;;;;;5003063;28;20054;-49
2022/08/12 05:40:41;;;;;;;11.02;6.88;;;19.10;99.90;;;;;;4999393;28;20065;-53
2022/08/12 05:43:07;;;;;;;12.15;6.38;;;19.10;99.90;;;;;;4999258;28;20077;-52
2022/08/12 05:45:33;;;;;;;9.88;6.30;;;19.10;99.90;;;;;;4999325;28;20058;-54
2022/08/12 05:47:58;;;;;;;9.77;6.85;;;19.20;99.90;;;;;;4998920;28;20057;-53
2022/08/12 05:50:25;;;;;;;11.68;7.47;;;19.30;99.90;;;;;;5000569;28;20061;-52
2022/08/12 05:52:51;;;;;;;9.75;7.00;;;19.30;99.90;;;;;;4999866;28;20050;-52
2022/08/12 05:55:19;;;;;;;15.63;6.97;;;19.40;99.90;;;;;;4998651;28;20073;-52
2022/08/12 05:57:47;;;;;;;12.88;6.88;;;19.40;99.90;;;;;;4998898;28;20104;-53
2022/08/12 06:00:15;;;;;;;9.55;6.18;;;19.50;99.90;;;;;;4998556;28;20054;-51
2022/08/12 06:02:41;;;;;;;10.75;6.13;;;19.50;99.90;;;;;;4999316;28;20782;-50
2022/08/12 06:05:09;;;;;;;10.95;6.15;;;19.60;99.90;;;;;;4997420;28;20067;-53
2022/08/12 06:07:44;;;;;;;9.90;6.88;;;19.60;99.90;;;;;;4998672;28;20639;-51
2022/08/12 06:10:10;;;;;;;9.27;5.90;;;19.80;99.90;;;;;;4999746;28;20516;-53
2022/08/12 06:12:36;;;;;;;12.57;6.50;;;19.90;99.90;;;;;;4999069;28;20038;-52
2022/08/12 06:15:03;;;;;;;11.95;6.68;;;19.80;99.90;;;;;;5000240;28;20078;-53
2022/08/12 06:17:29;;;;;;;10.00;5.63;;;19.90;99.90;;;;;;4979416;28;20054;-52
2022/08/12 06:19:57;;;;;;;11.10;6.00;;;20.00;99.90;;;;;;4980670;28;20039;-50
2022/08/12 06:22:24;;;;;;;8.88;6.18;;;20.10;99.90;;;;;;4979410;28;20074;-50
2022/08/12 06:24:52;;;;;;;8.57;5.68;;;20.20;99.90;;;;;;4978672;28;20067;-50
2022/08/12 06:27:19;;;;;;;10.98;4.95;;;20.20;99.90;;;;;;4978563;28;20066;-54
2022/08/12 06:29:45;;;;;;;8.43;5.28;;;20.30;99.90;;;;;;4979515;28;20126;-53
2022/08/12 06:32:10;;;;;;;12.20;5.72;;;20.40;99.90;;;;;;4980385;28;20098;-53
2022/08/12 06:34:36;;;;;;;8.73;5.53;;;20.40;99.90;;;;;;4978796;28;20047;-54
2022/08/12 06:37:03;;;;;;;11.30;5.60;;;20.60;99.90;;;;;;4979967;28;20205;-55
2022/08/12 06:39:29;;;;;;;7.82;5.07;;;20.70;99.90;;;;;;4997443;28;20042;-51
2022/08/12 06:44:38;;;;;;;8.98;5.10;;;20.80;99.90;;;;;;4999202;28;20061;-53
2022/08/12 06:47:04;;;;;;;7.65;5.25;;;20.90;99.90;;;;;;4998507;28;20042;-49
2022/08/12 06:49:35;;;;;;;7.97;4.60;;;21.00;99.90;;;;;;4998165;28;20093;-50
2022/08/12 06:52:03;;;;;;;8.43;4.45;;;21.00;99.90;;;;;;4998032;28;20054;-52
2022/08/12 06:54:29;;;;;;;8.55;4.20;;;21.10;99.90;;;;;;4999841;28;20057;-54
2022/08/12 06:56:55;;;;;;;6.70;4.28;;;21.20;99.90;;;;;;4996813;28;20882;-51
2022/08/12 06:59:21;;;;;;;9.60;4.38;;;21.30;99.90;;;;;;4999070;28;20035;-52
2022/08/12 07:01:48;;;;;;;6.97;4.20;;;21.30;99.90;;;;;;4998676;28;20077;-53
2022/08/12 07:04:16;;;;;;;8.48;4.38;;;21.40;99.90;;;;;;4998378;28;20097;-53
2022/08/12 07:06:43;;;;;;;9.27;4.35;;;21.40;99.90;;;;;;4993512;28;20057;-50
2022/08/12 07:09:09;;;;;;;7.00;4.07;;;21.50;99.90;;;;;;4988500;28;20050;-53
2022/08/12 07:11:38;;;;;;;7.82;4.00;;;21.60;99.90;;;;;;4991148;28;20180;-50
2022/08/12 07:14:04;;;;;;;10.07;4.07;;;21.60;99.90;;;;;;4989444;28;20064;-55
2022/08/12 07:19:14;;;;;;;8.18;4.75;;;21.90;99.90;;;;;;4990902;28;20053;-52
2022/08/12 07:21:40;;;;;;;8.80;4.60;;;21.90;99.90;;;;;;4989334;28;20114;-54
2022/08/12 07:24:06;;;;;;;7.90;4.75;;;22.10;99.90;;;;;;4990995;28;20178;-55
2022/08/12 07:26:31;;;;;;;8.15;4.20;;;22.20;99.90;;;;;;4988976;28;20050;-56
2022/08/12 07:28:57;;;;;;;10.07;4.30;;;22.20;99.90;;;;;;4990539;28;20078;-54
2022/08/12 07:31:23;;;;;;;9.18;4.30;;;22.30;99.90;;;;;;4988863;28;20046;-50
2022/08/12 07:33:49;;;;;;;8.38;4.07;;;22.50;99.90;;;;;;4988336;28;20445;-54
2022/08/12 07:36:15;;;;;;;7.90;3.67;;;22.60;99.90;;;;;;4989865;28;20102;-52
2022/08/12 07:38:44;;;;;;;11.85;4.28;;;22.60;99.90;;;;;;4988984;28;20044;-53
2022/08/12 07:41:30;;;;;;;6.53;3.40;;;22.80;99.90;;;;;;4990373;28;20046;-52
2022/08/12 07:44:02;;;;;;;10.77;3.95;;;22.80;99.90;;;;;;4988509;28;20116;-52
2022/08/12 07:46:35;;;;;;;6.50;3.67;;;23.00;99.90;;;;;;4988312;28;20042;-53
2022/08/12 07:49:08;;;;;;;10.05;3.65;;;23.00;99.90;;;;;;4989700;28;20057;-51
2022/08/12 07:51:34;;;;;;;7.90;3.33;;;23.10;99.90;;;;;;4988730;28;20057;-51
2022/08/12 07:54:00;;;;;;;10.55;3.92;;;23.30;99.90;;;;;;4990289;28;20055;-51
2022/08/12 07:56:27;;;;;;;9.07;3.55;;;23.40;99.90;;;;;;4988199;28;20129;-55
2022/08/12 07:58:53;;;;;;;8.27;3.58;;;23.40;99.90;;;;;;4988965;28;20046;-52
2022/08/12 08:01:21;;;;;;;6.82;3.38;;;23.50;99.90;;;;;;4988698;28;20121;-56
2022/08/12 08:06:39;;;;;;;7.60;3.47;;;23.70;99.90;;;;;;4988964;28;20053;-53
2022/08/12 08:09:05;;;;;;;7.40;3.30;;;23.80;99.90;;;;;;4986298;28;20739;-52
2022/08/12 08:14:15;;;;;;;7.22;3.20;;;24.00;99.90;;;;;;4984862;28;20073;-50
2022/08/12 08:16:42;;;;;;;7.47;3.05;;;24.00;99.90;;;;;;4997172;28;20054;-53
2022/08/12 08:19:14;;;;;;;6.68;3.30;;;24.10;99.90;;;;;;4996576;28;20058;-52
2022/08/12 08:21:41;;;;;;;7.55;3.72;;;24.20;99.90;;;;;;4996517;28;20060;-50
2022/08/12 08:24:16;;;;;;;7.10;3.35;;;24.30;99.90;;;;;;4997792;28;20058;-49
2022/08/12 08:26:42;;;;;;;8.07;3.92;;;24.30;99.90;;;;;;4996806;28;20042;-53
2022/08/12 08:29:08;;;;;;;8.38;3.67;;;24.30;99.90;;;;;;4997761;28;20053;-51
2022/08/12 08:31:35;;;;;;;8.10;3.58;;;24.50;99.90;;;;;;4997466;28;20050;-50
2022/08/12 08:34:00;;;;;;;7.55;3.60;;;24.50;99.90;;;;;;4996702;28;20043;-52
2022/08/12 08:36:26;;;;;;;7.80;3.80;;;24.70;99.90;;;;;;4997521;28;20045;-51
2022/08/12 08:38:52;;;;;;;7.90;4.20;;;24.80;99.90;;;;;;4994483;28;20046;-51
2022/08/12 08:44:03;;;;;;;8.40;4.07;;;25.00;99.90;;;;;;5000837;28;20078;-53
2022/08/12 08:46:31;;;;;;;6.25;3.58;;;25.00;99.90;;;;;;5001285;28;20050;-52
2022/08/12 08:49:00;;;;;;;8.95;3.10;;;25.20;99.90;;;;;;5000141;28;20537;-49
2022/08/12 08:51:26;;;;;;;9.35;3.60;;;25.20;99.90;;;;;;4998977;28;20049;-52
2022/08/12 08:53:55;;;;;;;7.70;2.90;;;25.40;99.90;;;;;;5001954;28;20050;-50
2022/08/12 08:56:21;;;;;;;5.40;3.00;;;25.50;99.90;;;;;;5000055;28;20061;-52
2022/08/12 08:58:48;;;;;;;6.75;3.17;;;25.50;99.90;;;;;;5001554;28;20047;-50
2022/08/12 09:01:20;;;;;;;6.65;2.85;;;25.60;99.90;;;;;;4999976;28;20160;-52
2022/08/12 09:03:49;;;;;;;9.40;3.38;;;25.60;99.90;;;;;;4999577;28;20635;-51
2022/08/12 09:06:15;;;;;;;8.70;3.15;;;25.70;99.90;;;;;;5001242;28;20531;-50
2022/08/12 09:08:42;;;;;;;7.65;3.08;;;25.90;99.90;;;;;;4999465;28;20534;-51
2022/08/12 09:13:54;;;;;;;8.20;3.05;;;25.90;99.90;;;;;;4987946;28;20057;-52
2022/08/12 09:16:20;;;;;;;7.60;3.03;;;26.10;99.90;;;;;;4999550;28;20124;-50
2022/08/12 09:18:47;;;;;;;7.55;3.03;;;26.10;99.90;;;;;;5000800;28;20136;-52
2022/08/12 09:21:12;;;;;;;7.57;3.05;;;26.10;99.90;;;;;;4999915;28;20081;-53
2022/08/12 09:23:39;;;;;;;8.18;3.17;;;26.20;99.90;;;;;;4999742;28;20084;-53
2022/08/12 09:26:08;;;;;;;6.53;2.80;;;26.30;99.90;;;;;;4998848;28;20054;-53
2022/08/12 09:28:34;;;;;;;8.38;2.78;;;26.30;99.90;;;;;;4999883;28;20084;-50
2022/08/12 09:31:00;;;;;;;8.15;3.15;;;26.40;99.90;;;;;;4999763;28;20038;-53
2022/08/12 09:33:32;;;;;;;7.93;2.90;;;26.50;99.90;;;;;;4999289;28;20065;-53
2022/08/12 09:35:59;;;;;;;8.82;2.92;;;26.50;99.90;;;;;;4998924;28;20106;-49
2022/08/12 09:38:25;;;;;;;9.15;3.08;;;26.60;99.90;;;;;;4999621;28;20058;-49
2022/08/12 09:40:51;;;;;;;10.18;3.22;;;26.60;99.90;;;;;;5001195;28;20085;-52
2022/08/12 09:46:02;;;;;;;8.13;3.25;;;26.80;99.50;;;;;;5003382;28;20545;-55
2022/08/12 09:48:28;;;;;;;7.70;2.55;;;26.90;99.60;;;;;;5003254;28;20047;-52
2022/08/12 09:50:54;;;;;;;6.72;2.72;;;27.00;99.60;;;;;;5002020;28;20518;-52
2022/08/12 09:53:23;;;;;;;5.93;2.78;;;27.10;99.90;;;;;;5002878;28;20050;-52
2022/08/12 09:55:54;;;;;;;5.40;2.58;;;27.10;99.80;;;;;;5000654;28;20062;-51
2022/08/12 09:58:27;;;;;;;6.47;2.97;;;27.20;99.60;;;;;;5003626;28;20030;-53
2022/08/12 10:00:54;;;;;;;8.00;2.95;;;27.20;99.90;;;;;;5001577;28;20437;-50
2022/08/12 10:03:23;;;;;;;7.43;3.08;;;27.30;99.50;;;;;;5003474;28;20076;-53
2022/08/12 10:05:50;;;;;;;7.80;3.33;;;27.20;98.80;;;;;;5002692;28;20413;-53
2022/08/12 10:08:17;;;;;;;6.38;2.67;;;27.20;99.10;;;;;;5001668;28;20051;-50
2022/08/12 10:13:40;;;;;;;5.97;2.80;;;27.50;98.20;;;;;;5001245;28;20104;-52
2022/08/12 10:16:30;;;;;;;6.57;2.58;;;27.60;95.90;;;;;;5002603;28;20121;-50
2022/08/12 10:19:02;;;;;;;8.82;2.60;;;27.50;95.90;;;;;;5002610;28;20042;-53
2022/08/12 10:21:35;;;;;;;9.50;2.95;;;27.50;95.90;;;;;;4999749;28;20061;-52
2022/08/12 10:24:14;;;;;;;4.97;2.55;;;27.60;96.60;;;;;;5002366;28;20113;-49
2022/08/12 10:29:44;;;;;;;7.03;2.55;;;27.80;96.30;;;;;;5002211;28;20054;-53
2022/08/12 10:32:20;;;;;;;5.47;2.30;;;27.80;96.20;;;;;;5002903;28;20040;-48
2022/08/12 10:34:47;;;;;;;8.38;2.50;;;28.00;95.80;;;;;;5001025;28;20051;-49
2022/08/12 10:37:13;;;;;;;7.40;2.42;;;28.00;95.40;;;;;;5000530;28;20061;-50
2022/08/12 10:39:39;;;;;;;5.72;2.40;;;27.90;94.00;;;;;;5000123;28;20116;-48
2022/08/12 10:44:53;;;;;;;6.65;2.25;;;28.20;93.90;;;;;;5002364;28;20085;-52
2022/08/12 10:47:21;;;;;;;5.93;2.28;;;28.30;92.30;;;;;;4999174;28;20070;-52
2022/08/12 10:49:47;;;;;;;6.93;2.70;;;28.30;91.90;;;;;;5001088;28;20050;-51
2022/08/12 10:52:13;;;;;;;6.93;2.40;;;28.40;91.70;;;;;;4999515;28;20050;-52
2022/08/12 10:54:40;;;;;;;5.50;2.38;;;28.40;92.20;;;;;;5002315;28;20055;-49
2022/08/12 10:57:06;;;;;;;5.70;2.35;;;28.40;91.80;;;;;;5001808;28;20034;-50
2022/08/12 10:59:32;;;;;;;8.15;2.50;;;28.60;91.30;;;;;;5000138;28;20046;-50
2022/08/12 11:01:59;;;;;;;6.57;2.33;;;28.80;92.00;;;;;;5001624;28;20040;-52
2022/08/12 11:04:27;;;;;;;6.10;2.70;;;28.80;91.30;;;;;;5000026;28;20346;-52
2022/08/12 11:06:54;;;;;;;5.75;2.38;;;28.90;88.70;;;;;;4999886;28;20446;-49
2022/08/12 11:09:23;;;;;;;5.82;2.47;;;29.00;90.60;;;;;;4999561;28;20042;-52
2022/08/12 11:11:49;;;;;;;6.30;2.65;;;29.00;90.20;;;;;;5000949;28;20420;-53
2022/08/12 11:14:18;;;;;;;7.72;2.40;;;29.10;90.30;;;;;;5000443;28;20087;-52
2022/08/12 11:16:44;;;;;;;8.45;2.30;;;29.00;90.60;;;;;;5000885;28;20050;-50
2022/08/12 11:19:11;;;;;;;6.70;2.67;;;29.20;90.30;;;;;;5001998;28;20049;-50
2022/08/12 11:21:37;;;;;;;6.00;2.30;;;29.20;90.50;;;;;;5000340;28;20050;-51
2022/08/12 11:24:04;;;;;;;6.72;2.33;;;29.10;89.50;;;;;;5002044;28;20054;-51
2022/08/12 11:26:30;;;;;;;5.10;2.28;;;29.20;88.70;;;;;;5000182;28;20361;-51
2022/08/12 11:28:55;;;;;;;5.50;2.33;;;29.30;90.40;;;;;;4999792;28;20050;-54
2022/08/12 11:31:21;;;;;;;5.63;2.08;;;29.20;90.20;;;;;;4999411;28;20054;-52
2022/08/12 11:33:48;;;;;;;7.47;2.67;;;29.40;90.40;;;;;;5000558;28;20130;-53
2022/08/12 11:36:15;;;;;;;5.07;2.10;;;29.40;89.90;;;;;;5001285;28;20074;-49
2022/08/12 11:38:40;;;;;;;7.22;2.20;;;29.40;89.70;;;;;;4998941;28;20050;-54
2022/08/12 11:41:06;;;;;;;5.88;2.17;;;29.50;89.10;;;;;;5000790;28;20113;-52
2022/08/12 11:43:32;;;;;;;9.40;2.60;;;29.40;86.60;;;;;;4999269;28;20118;-51
2022/08/12 11:45:59;;;;;;;6.43;2.22;;;29.50;87.50;;;;;;5001050;28;20046;-51
2022/08/12 11:48:25;;;;;;;5.45;2.30;;;29.60;86.10;;;;;;4999839;28;20053;-52
2022/08/12 11:50:51;;;;;;;4.85;2.00;;;29.60;86.40;;;;;;4999961;28;20093;-51
2022/08/12 11:53:16;;;;;;;5.43;2.20;;;29.50;87.40;;;;;;5001233;28;20042;-52
2022/08/12 11:55:42;;;;;;;6.30;2.47;;;29.60;88.00;;;;;;4999586;28;20057;-52
2022/08/12 11:58:08;;;;;;;8.18;2.67;;;29.70;88.20;;;;;;5000708;28;20096;-51
2022/08/12 12:00:33;;;;;;;6.97;2.40;;;29.60;87.30;;;;;;4997644;28;20088;-51
2022/08/12 12:02:59;;;;;;;4.82;2.28;;;29.60;88.50;;;;;;5000703;28;20072;-54
2022/08/12 12:05:25;;;;;;;6.38;2.50;;;29.70;88.70;;;;;;4999837;28;20073;-53
2022/08/12 12:07:50;;;;;;;7.78;2.47;;;29.70;88.70;;;;;;4999701;28;20062;-53
2022/08/12 12:10:19;;;;;;;8.13;2.40;;;29.70;88.60;;;;;;5000448;28;20161;-53
2022/08/12 12:12:45;;;;;;;5.10;2.17;;;29.80;87.60;;;;;;4988230;28;20039;-50
2022/08/12 12:15:12;;;;;;;5.00;2.38;;;29.70;87.30;;;;;;4991945;28;20057;-49
2022/08/12 12:17:40;;;;;;;7.65;2.50;;;29.70;87.40;;;;;;4990213;28;20065;-49
2022/08/12 12:20:09;;;;;;;8.00;2.22;;;29.70;87.20;;;;;;4991791;28;20046;-52
2022/08/12 12:22:40;;;;;;;4.70;2.10;;;29.70;85.90;;;;;;4990322;28;20181;-51
2022/08/12 12:25:07;;;;;;;7.80;2.20;;;29.70;84.80;;;;;;4991176;28;20062;-49
2022/08/12 12:27:55;;;;;;;5.22;2.00;;;29.70;85.70;;;;;;4990405;28;20057;-52
2022/08/12 12:30:21;;;;;;;5.05;2.00;;;29.80;83.80;;;;;;4989779;28;20054;-53
2022/08/12 12:32:46;;;;;;;6.45;2.10;;;29.70;85.90;;;;;;4991593;28;20042;-52
2022/08/12 12:35:12;;;;;;;6.22;2.05;;;29.80;85.30;;;;;;4988861;28;20054;-52
2022/08/12 12:37:58;;;;;;;6.00;2.30;;;29.80;84.10;;;;;;4991603;28;20073;-53
2022/08/12 12:40:26;;;;;;;7.10;2.00;;;29.90;88.20;;;;;;4990541;28;20057;-51
2022/08/12 12:42:51;;;;;;;5.20;1.85;;;29.90;84.90;;;;;;4988669;28;20065;-49
2022/08/12 12:45:17;;;;;;;6.03;2.42;;;29.90;82.70;;;;;;4990652;28;20053;-49
2022/08/12 12:48:05;;;;;;;6.55;2.45;;;29.80;86.80;;;;;;4988922;28;20049;-53
2022/08/12 12:50:40;;;;;;;6.38;2.50;;;29.90;90.60;;;;;;5000243;28;20050;-54
2022/08/12 12:53:07;;;;;;;7.65;2.40;;;29.70;90.10;;;;;;4999437;28;20046;-54
2022/08/12 12:55:36;;;;;;;5.60;2.40;;;29.80;90.60;;;;;;4998313;28;20429;-53
2022/08/12 12:58:15;;;;;;;5.03;2.20;;;29.90;91.10;;;;;;4999911;28;20035;-53
2022/08/12 13:00:43;;;;;;;8.45;2.55;;;29.90;91.20;;;;;;4998106;28;20080;-51
2022/08/12 13:03:11;;;;;;;5.47;2.40;;;29.70;91.40;;;;;;4999383;28;20052;-51
2022/08/12 13:05:42;;;;;;;8.38;2.80;;;29.80;91.50;;;;;;4998451;28;20107;-52
2022/08/12 13:08:25;;;;;;;6.20;2.63;;;29.60;91.50;;;;;;4997422;28;20058;-51
2022/08/12 13:10:53;;;;;;;6.22;2.25;;;29.70;91.50;;;;;;5000704;28;20055;-52
2022/08/12 13:13:20;;;;;;;8.40;2.67;;;29.60;91.40;;;;;;4997464;28;20042;-53
2022/08/12 13:15:50;;;;;;;6.07;2.33;;;29.70;91.30;;;;;;4995009;28;20646;-54
2022/08/12 13:18:19;;;;;;;7.63;2.50;;;29.60;91.00;;;;;;4980261;28;20085;-54
2022/08/12 13:20:46;;;;;;;8.10;2.60;;;29.60;91.30;;;;;;4988139;28;20050;-51
2022/08/12 13:23:14;;;;;;;6.80;2.40;;;29.60;91.20;;;;;;4989335;28;20069;-54
2022/08/12 13:25:40;;;;;;;5.93;2.30;;;29.60;91.40;;;;;;4989828;28;20082;-53
2022/08/12 13:28:07;;;;;;;11.35;2.70;;;29.50;91.50;;;;;;4987946;28;20055;-52
2022/08/12 13:30:35;;;;;;;8.82;2.40;;;29.50;91.60;;;;;;4989912;28;20078;-53
2022/08/12 13:33:01;;;;;;;9.57;2.88;;;29.60;91.90;;;;;;4992591;28;20074;-52
2022/08/12 13:35:34;;;;;;;7.50;2.90;;;29.50;92.00;;;;;;4991287;28;20046;-49
2022/08/12 13:38:01;;;;;;;8.80;2.65;;;29.50;91.90;;;;;;4993283;28;20050;-53
2022/08/12 13:40:29;;;;;;;8.35;2.30;;;29.50;92.00;;;;;;5003407;28;20050;-53
2022/08/12 13:42:56;;;;;;;6.72;2.50;;;29.50;91.60;;;;;;5000617;28;20057;-52
2022/08/12 13:45:29;;;;;;;6.90;2.38;;;29.40;91.60;;;;;;5003999;28;20050;-52
2022/08/12 13:47:56;;;;;;;7.40;2.70;;;29.40;91.50;;;;;;5002304;28;20553;-52
2022/08/12 13:50:31;;;;;;;7.00;2.38;;;29.30;91.60;;;;;;5003319;28;20606;-48
2022/08/12 13:53:07;;;;;;;9.98;3.15;;;29.30;91.50;;;;;;5003212;28;20054;-52
2022/08/12 13:55:33;;;;;;;6.97;2.40;;;29.20;91.90;;;;;;5002258;28;20445;-52
2022/08/12 13:58:00;;;;;;;7.55;2.25;;;29.10;91.90;;;;;;5003854;28;20509;-52
2022/08/12 14:00:26;;;;;;;5.15;2.22;;;29.10;92.10;;;;;;5002078;28;20107;-52
2022/08/12 14:02:52;;;;;;;6.05;2.15;;;29.10;91.90;;;;;;5003741;28;20039;-51
2022/08/12 14:05:19;;;;;;;8.02;2.63;;;29.00;91.90;;;;;;5001901;28;20054;-51
2022/08/12 14:07:55;;;;;;;6.38;2.25;;;29.00;91.70;;;;;;5003017;28;20054;-51
2022/08/12 14:10:35;;;;;;;9.05;2.28;;;29.00;91.70;;;;;;5002520;28;20050;-51
2022/08/12 14:13:02;;;;;;;9.00;2.80;;;29.00;91.80;;;;;;5001662;28;20042;-52
2022/08/12 14:15:30;;;;;;;6.50;2.20;;;28.90;91.80;;;;;;5000313;28;20177;-50
2022/08/12 14:18:07;;;;;;;5.38;2.08;;;28.90;92.00;;;;;;4982140;28;20414;-47
2022/08/12 14:20:33;;;;;;;8.13;2.45;;;28.90;91.90;;;;;;4983152;28;20410;-50
2022/08/12 14:22:59;;;;;;;4.85;2.28;;;28.80;92.10;;;;;;4983108;28;20046;-50
2022/08/12 14:25:27;;;;;;;7.43;2.83;;;28.80;92.30;;;;;;4982509;28;20118;-49
2022/08/12 14:27:54;;;;;;;8.60;2.42;;;28.80;92.40;;;;;;4983449;28;20046;-51
2022/08/12 14:30:20;;;;;;;7.25;2.45;;;28.80;92.30;;;;;;4980506;28;20085;-52
2022/08/12 14:32:46;;;;;;;6.18;2.22;;;28.60;92.20;;;;;;4983589;28;20065;-50
2022/08/12 14:35:12;;;;;;;8.27;2.45;;;28.60;92.60;;;;;;4982399;28;20756;-51
2022/08/12 14:37:38;;;;;;;8.98;2.55;;;28.70;92.70;;;;;;4986239;28;20512;-52
2022/08/12 14:40:05;;;;;;;6.80;2.40;;;28.60;92.50;;;;;;5001918;28;20060;-49
2022/08/12 14:42:31;;;;;;;10.27;2.35;;;28.60;92.50;;;;;;5001666;28;20483;-52
2022/08/12 14:44:56;;;;;;;6.38;2.30;;;28.60;92.80;;;;;;5002371;28;20073;-50
2022/08/12 14:47:23;;;;;;;8.13;2.42;;;28.60;92.90;;;;;;5000675;28;20050;-53